Terminal Aerodrome Forecast
Issued by NWS

Home | Current Version | Previous Version | Text Only | Print | Product List | Glossary On
Versions: 1 2 3 4 5 6 7 8 9 10 11 12 13 14 15 16 17 18
152
FTUS41 KCAR 292213 AAB
TAFBHB
TAF AMD
KBHB 292213Z 2922/3018 13008KT P6SM FEW025 BKN045
     FM300000 15004KT P6SM OVC030
     FM300300 00000KT 6SM -SHRA OVC025
     FM300600 00000KT 3SM -SHRA BR BKN015 OVC030
     FM301200 13004KT P6SM BKN035
     FM301500 15007KT P6SM BKN050=

USA.gov is the U.S. government's official web portal to all federal, state and local government web resources and services.